sensor_id;sensor_type;location;lat;lon;timestamp;temperature;humidity
38995;DHT22;24769;18.712;99.000;2023-02-01T00:00:59;15.30;99.90
38995;DHT22;24769;18.712;99.000;2023-02-01T00:03:31;15.40;99.90
38995;DHT22;24769;18.712;99.000;2023-02-01T00:05:58;15.50;99.90
38995;DHT22;24769;18.712;99.000;2023-02-01T00:08:26;15.40;99.90
38995;DHT22;24769;18.712;99.000;2023-02-01T00:11:05;15.40;99.90
38995;DHT22;24769;18.712;99.000;2023-02-01T00:13:33;15.40;99.90
38995;DHT22;24769;18.712;99.000;2023-02-01T00:16:17;15.40;99.90
38995;DHT22;24769;18.712;99.000;2023-02-01T00:18:45;15.40;99.90
38995;DHT22;24769;18.712;99.000;2023-02-01T00:21:14;15.50;99.90
38995;DHT22;24769;18.712;99.000;2023-02-01T00:23:41;15.60;99.90
38995;DHT22;24769;18.712;99.000;2023-02-01T00:26:23;15.60;99.90
38995;DHT22;24769;18.712;99.000;2023-02-01T00:28:51;15.60;99.90
38995;DHT22;24769;18.712;99.000;2023-02-01T00:31:18;15.60;99.90
38995;DHT22;24769;18.712;99.000;2023-02-01T00:33:49;15.80;99.90
38995;DHT22;24769;18.712;99.000;2023-02-01T00:36:15;15.70;99.90
38995;DHT22;24769;18.712;99.000;2023-02-01T00:38:42;15.80;99.90
38995;DHT22;24769;18.712;99.000;2023-02-01T00:43:39;16.00;99.90
38995;DHT22;24769;18.712;99.000;2023-02-01T00:46:06;16.10;99.90
38995;DHT22;24769;18.712;99.000;2023-02-01T00:48:33;16.20;99.90
38995;DHT22;24769;18.712;99.000;2023-02-01T00:51:08;16.20;99.90
38995;DHT22;24769;18.712;99.000;2023-02-01T00:53:35;16.40;99.90
38995;DHT22;24769;18.712;99.000;2023-02-01T00:56:03;16.50;99.90
38995;DHT22;24769;18.712;99.000;2023-02-01T00:58:31;16.70;99.90
38995;DHT22;24769;18.712;99.000;2023-02-01T01:03:38;17.00;99.90
38995;DHT22;24769;18.712;99.000;2023-02-01T01:06:12;17.10;99.90
38995;DHT22;24769;18.712;99.000;2023-02-01T01:08:39;17.20;99.90
38995;DHT22;24769;18.712;99.000;2023-02-01T01:11:09;17.40;99.90
38995;DHT22;24769;18.712;99.000;2023-02-01T01:13:36;17.60;99.90
38995;DHT22;24769;18.712;99.000;2023-02-01T01:16:04;17.70;99.90
38995;DHT22;24769;18.712;99.000;2023-02-01T01:18:33;17.80;99.90
38995;DHT22;24769;18.712;99.000;2023-02-01T01:21:00;18.00;99.90
38995;DHT22;24769;18.712;99.000;2023-02-01T01:23:28;18.10;99.90
38995;DHT22;24769;18.712;99.000;2023-02-01T01:25:55;18.30;99.90
38995;DHT22;24769;18.712;99.000;2023-02-01T01:28:21;18.40;99.90
38995;DHT22;24769;18.712;99.000;2023-02-01T01:30:48;18.40;99.90
38995;DHT22;24769;18.712;99.000;2023-02-01T01:33:15;18.50;99.90
38995;DHT22;24769;18.712;99.000;2023-02-01T01:35:41;18.50;99.90
38995;DHT22;24769;18.712;99.000;2023-02-01T01:38:10;18.60;99.90
38995;DHT22;24769;18.712;99.000;2023-02-01T01:40:37;18.60;99.90
38995;DHT22;24769;18.712;99.000;2023-02-01T01:43:13;18.60;99.90
38995;DHT22;24769;18.712;99.000;2023-02-01T01:45:40;18.70;99.90
38995;DHT22;24769;18.712;99.000;2023-02-01T01:48:28;18.70;99.90
38995;DHT22;24769;18.712;99.000;2023-02-01T01:51:06;18.80;99.90
38995;DHT22;24769;18.712;99.000;2023-02-01T01:53:43;18.90;99.90
38995;DHT22;24769;18.712;99.000;2023-02-01T01:56:11;19.30;99.90
38995;DHT22;24769;18.712;99.000;2023-02-01T01:58:38;19.50;99.90
38995;DHT22;24769;18.712;99.000;2023-02-01T02:01:05;19.30;99.90
38995;DHT22;24769;18.712;99.000;2023-02-01T02:03:42;19.40;99.90
38995;DHT22;24769;18.712;99.000;2023-02-01T02:08:44;19.70;99.90
38995;DHT22;24769;18.712;99.000;2023-02-01T02:11:12;19.90;99.90
38995;DHT22;24769;18.712;99.000;2023-02-01T02:13:45;19.80;99.90
38995;DHT22;24769;18.712;99.000;2023-02-01T02:36:01;21.10;99.90
38995;DHT22;24769;18.712;99.000;2023-02-01T02:47:52;21.40;99.90
38995;DHT22;24769;18.712;99.000;2023-02-01T02:50:21;21.80;99.60
38995;DHT22;24769;18.712;99.000;2023-02-01T02:53:21;21.90;97.20
38995;DHT22;24769;18.712;99.000;2023-02-01T02:56:09;22.10;97.50
38995;DHT22;24769;18.712;99.000;2023-02-01T02:58:55;21.90;98.50
38995;DHT22;24769;18.712;99.000;2023-02-01T03:01:42;21.90;99.90
38995;DHT22;24769;18.712;99.000;2023-02-01T03:04:27;22.30;97.50
38995;DHT22;24769;18.712;99.000;2023-02-01T03:06:54;22.60;96.20
38995;DHT22;24769;18.712;99.000;2023-02-01T03:09:31;22.80;93.70
38995;DHT22;24769;18.712;99.000;2023-02-01T03:12:03;22.90;87.30
38995;DHT22;24769;18.712;99.000;2023-02-01T03:14:56;22.90;86.10
38995;DHT22;24769;18.712;99.000;2023-02-01T03:17:31;23.00;84.20
38995;DHT22;24769;18.712;99.000;2023-02-01T03:20:01;23.00;83.00
38995;DHT22;24769;18.712;99.000;2023-02-01T03:22:30;22.90;83.70
38995;DHT22;24769;18.712;99.000;2023-02-01T03:25:03;23.20;82.30
38995;DHT22;24769;18.712;99.000;2023-02-01T03:27:53;23.40;80.30
38995;DHT22;24769;18.712;99.000;2023-02-01T03:30:35;23.30;78.40
38995;DHT22;24769;18.712;99.000;2023-02-01T03:33:06;23.00;78.90
38995;DHT22;24769;18.712;99.000;2023-02-01T03:41:50;23.20;74.80
38995;DHT22;24769;18.712;99.000;2023-02-01T03:44:35;23.60;73.90
38995;DHT22;24769;18.712;99.000;2023-02-01T03:49:41;24.40;69.70
38995;DHT22;24769;18.712;99.000;2023-02-01T03:52:16;24.50;66.40
38995;DHT22;24769;18.712;99.000;2023-02-01T03:54:44;24.60;63.90
38995;DHT22;24769;18.712;99.000;2023-02-01T03:57:14;24.70;63.70
38995;DHT22;24769;18.712;99.000;2023-02-01T03:59:44;24.90;64.70
38995;DHT22;24769;18.712;99.000;2023-02-01T04:02:11;25.00;61.90
38995;DHT22;24769;18.712;99.000;2023-02-01T04:04:38;25.00;59.70
38995;DHT22;24769;18.712;99.000;2023-02-01T04:07:05;25.00;58.90
38995;DHT22;24769;18.712;99.000;2023-02-01T04:09:32;25.20;57.50
38995;DHT22;24769;18.712;99.000;2023-02-01T04:11:58;25.40;58.70
38995;DHT22;24769;18.712;99.000;2023-02-01T04:14:25;25.40;57.50
38995;DHT22;24769;18.712;99.000;2023-02-01T04:16:51;25.30;57.80
38995;DHT22;24769;18.712;99.000;2023-02-01T04:19:18;25.30;57.40
38995;DHT22;24769;18.712;99.000;2023-02-01T04:21:44;25.20;57.70
38995;DHT22;24769;18.712;99.000;2023-02-01T04:24:11;25.10;56.80
38995;DHT22;24769;18.712;99.000;2023-02-01T04:26:37;25.00;56.00
38995;DHT22;24769;18.712;99.000;2023-02-01T04:29:04;25.20;56.50
38995;DHT22;24769;18.712;99.000;2023-02-01T04:31:31;25.20;54.30
38995;DHT22;24769;18.712;99.000;2023-02-01T04:33:57;24.90;56.70
38995;DHT22;24769;18.712;99.000;2023-02-01T04:36:24;25.10;55.70
38995;DHT22;24769;18.712;99.000;2023-02-01T04:38:51;25.40;56.10
38995;DHT22;24769;18.712;99.000;2023-02-01T04:41:19;25.60;53.80
38995;DHT22;24769;18.712;99.000;2023-02-01T04:43:50;25.50;54.30
38995;DHT22;24769;18.712;99.000;2023-02-01T04:46:18;25.70;53.10
38995;DHT22;24769;18.712;99.000;2023-02-01T04:48:44;26.00;52.70
38995;DHT22;24769;18.712;99.000;2023-02-01T04:51:11;26.00;50.60
38995;DHT22;24769;18.712;99.000;2023-02-01T04:53:38;25.80;50.10
38995;DHT22;24769;18.712;99.000;2023-02-01T04:56:05;26.10;50.70
38995;DHT22;24769;18.712;99.000;2023-02-01T04:58:32;25.90;48.70
38995;DHT22;24769;18.712;99.000;2023-02-01T05:00:59;26.00;49.80
38995;DHT22;24769;18.712;99.000;2023-02-01T05:03:25;26.00;49.20
38995;DHT22;24769;18.712;99.000;2023-02-01T05:05:52;26.00;50.10
38995;DHT22;24769;18.712;99.000;2023-02-01T05:08:19;26.20;50.90
38995;DHT22;24769;18.712;99.000;2023-02-01T05:10:48;26.30;49.00
38995;DHT22;24769;18.712;99.000;2023-02-01T05:13:15;26.20;49.10
38995;DHT22;24769;18.712;99.000;2023-02-01T05:15:59;26.50;48.70
38995;DHT22;24769;18.712;99.000;2023-02-01T05:18:26;26.50;47.00
38995;DHT22;24769;18.712;99.000;2023-02-01T05:20:53;26.60;45.90
38995;DHT22;24769;18.712;99.000;2023-02-01T05:23:19;26.60;45.40
38995;DHT22;24769;18.712;99.000;2023-02-01T05:25:46;26.60;44.00
38995;DHT22;24769;18.712;99.000;2023-02-01T05:28:12;26.50;43.30
38995;DHT22;24769;18.712;99.000;2023-02-01T05:30:39;26.70;42.90
38995;DHT22;24769;18.712;99.000;2023-02-01T05:33:06;26.70;44.30
38995;DHT22;24769;18.712;99.000;2023-02-01T05:35:33;26.80;44.20
38995;DHT22;24769;18.712;99.000;2023-02-01T05:37:59;26.90;44.00
38995;DHT22;24769;18.712;99.000;2023-02-01T05:40:26;26.70;41.80
38995;DHT22;24769;18.712;99.000;2023-02-01T05:42:53;26.60;40.90
38995;DHT22;24769;18.712;99.000;2023-02-01T05:45:19;26.90;41.20
38995;DHT22;24769;18.712;99.000;2023-02-01T05:47:46;27.00;40.50
38995;DHT22;24769;18.712;99.000;2023-02-01T05:50:13;27.40;40.00
38995;DHT22;24769;18.712;99.000;2023-02-01T05:52:39;27.50;37.80
38995;DHT22;24769;18.712;99.000;2023-02-01T05:55:07;27.30;37.40
38995;DHT22;24769;18.712;99.000;2023-02-01T05:57:34;27.80;37.10
38995;DHT22;24769;18.712;99.000;2023-02-01T06:00:01;27.80;37.00
38995;DHT22;24769;18.712;99.000;2023-02-01T06:02:27;28.00;34.90
38995;DHT22;24769;18.712;99.000;2023-02-01T06:04:54;28.00;35.30
38995;DHT22;24769;18.712;99.000;2023-02-01T06:07:21;27.70;35.20
38995;DHT22;24769;18.712;99.000;2023-02-01T06:09:48;28.10;34.90
38995;DHT22;24769;18.712;99.000;2023-02-01T06:12:14;28.20;33.70
38995;DHT22;24769;18.712;99.000;2023-02-01T06:14:41;28.20;33.20
38995;DHT22;24769;18.712;99.000;2023-02-01T06:17:09;28.20;32.20
38995;DHT22;24769;18.712;99.000;2023-02-01T06:19:36;28.10;30.70
38995;DHT22;24769;18.712;99.000;2023-02-01T06:22:02;28.30;33.00
38995;DHT22;24769;18.712;99.000;2023-02-01T06:24:32;28.40;31.30
38995;DHT22;24769;18.712;99.000;2023-02-01T06:26:58;28.50;31.90
38995;DHT22;24769;18.712;99.000;2023-02-01T06:29:25;28.60;32.40
38995;DHT22;24769;18.712;99.000;2023-02-01T06:31:52;28.40;31.90
38995;DHT22;24769;18.712;99.000;2023-02-01T06:34:19;28.30;30.80
38995;DHT22;24769;18.712;99.000;2023-02-01T06:36:45;28.10;31.10
38995;DHT22;24769;18.712;99.000;2023-02-01T06:39:12;28.10;30.30
38995;DHT22;24769;18.712;99.000;2023-02-01T06:41:44;28.00;31.70
38995;DHT22;24769;18.712;99.000;2023-02-01T06:44:11;28.20;30.90
38995;DHT22;24769;18.712;99.000;2023-02-01T06:46:38;28.30;31.30
38995;DHT22;24769;18.712;99.000;2023-02-01T06:49:04;28.50;30.70
38995;DHT22;24769;18.712;99.000;2023-02-01T06:51:31;28.80;30.20
38995;DHT22;24769;18.712;99.000;2023-02-01T06:53:58;28.90;30.60
38995;DHT22;24769;18.712;99.000;2023-02-01T06:56:25;28.80;30.50
38995;DHT22;24769;18.712;99.000;2023-02-01T06:58:52;28.90;29.70
38995;DHT22;24769;18.712;99.000;2023-02-01T07:01:19;28.80;29.60
38995;DHT22;24769;18.712;99.000;2023-02-01T07:03:50;28.70;29.30
38995;DHT22;24769;18.712;99.000;2023-02-01T07:06:17;28.90;29.60
38995;DHT22;24769;18.712;99.000;2023-02-01T07:08:44;29.20;28.50
38995;DHT22;24769;18.712;99.000;2023-02-01T07:11:13;29.20;28.70
38995;DHT22;24769;18.712;99.000;2023-02-01T07:13:40;29.00;31.50
38995;DHT22;24769;18.712;99.000;2023-02-01T07:16:13;29.40;30.30
38995;DHT22;24769;18.712;99.000;2023-02-01T07:18:40;29.60;30.50
38995;DHT22;24769;18.712;99.000;2023-02-01T07:21:07;29.30;28.60
38995;DHT22;24769;18.712;99.000;2023-02-01T07:23:34;29.30;29.10
38995;DHT22;24769;18.712;99.000;2023-02-01T07:26:04;29.00;28.50
38995;DHT22;24769;18.712;99.000;2023-02-01T07:28:33;29.20;29.30
38995;DHT22;24769;18.712;99.000;2023-02-01T07:31:14;29.30;28.40
38995;DHT22;24769;18.712;99.000;2023-02-01T07:33:50;29.50;29.20
38995;DHT22;24769;18.712;99.000;2023-02-01T07:36:22;29.20;29.10
38995;DHT22;24769;18.712;99.000;2023-02-01T07:38:48;29.00;28.90
38995;DHT22;24769;18.712;99.000;2023-02-01T07:41:15;29.20;29.60
38995;DHT22;24769;18.712;99.000;2023-02-01T07:43:42;29.00;30.30
38995;DHT22;24769;18.712;99.000;2023-02-01T07:46:11;29.00;30.20
38995;DHT22;24769;18.712;99.000;2023-02-01T07:48:37;29.00;29.60
38995;DHT22;24769;18.712;99.000;2023-02-01T07:51:08;29.30;28.30
38995;DHT22;24769;18.712;99.000;2023-02-01T07:53:35;29.30;28.30
38995;DHT22;24769;18.712;99.000;2023-02-01T07:56:02;29.20;28.80
38995;DHT22;24769;18.712;99.000;2023-02-01T07:58:29;29.00;28.80
38995;DHT22;24769;18.712;99.000;2023-02-01T08:00:56;29.00;29.60
38995;DHT22;24769;18.712;99.000;2023-02-01T08:03:41;28.80;29.00
38995;DHT22;24769;18.712;99.000;2023-02-01T08:06:07;28.90;28.00
38995;DHT22;24769;18.712;99.000;2023-02-01T08:08:34;29.00;29.80
38995;DHT22;24769;18.712;99.000;2023-02-01T08:11:02;29.00;31.30
38995;DHT22;24769;18.712;99.000;2023-02-01T08:13:30;28.80;30.00
38995;DHT22;24769;18.712;99.000;2023-02-01T08:16:04;28.70;29.80
38995;DHT22;24769;18.712;99.000;2023-02-01T08:18:31;28.80;30.30
38995;DHT22;24769;18.712;99.000;2023-02-01T08:21:06;28.80;29.80
38995;DHT22;24769;18.712;99.000;2023-02-01T08:23:34;28.90;29.30
38995;DHT22;24769;18.712;99.000;2023-02-01T08:28:38;28.90;30.00
38995;DHT22;24769;18.712;99.000;2023-02-01T08:31:11;29.00;30.20
38995;DHT22;24769;18.712;99.000;2023-02-01T08:33:38;29.00;29.40
38995;DHT22;24769;18.712;99.000;2023-02-01T08:36:06;29.20;28.50
38995;DHT22;24769;18.712;99.000;2023-02-01T08:38:35;29.20;28.70
38995;DHT22;24769;18.712;99.000;2023-02-01T08:41:16;29.40;28.00
38995;DHT22;24769;18.712;99.000;2023-02-01T08:43:44;29.50;27.90
38995;DHT22;24769;18.712;99.000;2023-02-01T08:46:11;29.60;29.40
38995;DHT22;24769;18.712;99.000;2023-02-01T08:48:39;29.70;28.70
38995;DHT22;24769;18.712;99.000;2023-02-01T08:51:09;29.70;28.60
38995;DHT22;24769;18.712;99.000;2023-02-01T08:53:36;29.60;28.30
38995;DHT22;24769;18.712;99.000;2023-02-01T08:56:04;29.50;28.40
38995;DHT22;24769;18.712;99.000;2023-02-01T08:58:31;29.30;26.80
38995;DHT22;24769;18.712;99.000;2023-02-01T09:01:02;29.20;28.00
38995;DHT22;24769;18.712;99.000;2023-02-01T09:03:28;29.30;27.30
38995;DHT22;24769;18.712;99.000;2023-02-01T09:06:03;29.20;27.00
38995;DHT22;24769;18.712;99.000;2023-02-01T09:08:31;29.10;27.00
38995;DHT22;24769;18.712;99.000;2023-02-01T09:11:02;29.00;27.40
38995;DHT22;24769;18.712;99.000;2023-02-01T09:13:29;28.90;27.20
38995;DHT22;24769;18.712;99.000;2023-02-01T09:15:56;28.90;28.00
38995;DHT22;24769;18.712;99.000;2023-02-01T09:18:23;29.00;28.40
38995;DHT22;24769;18.712;99.000;2023-02-01T09:20:49;29.00;27.10
38995;DHT22;24769;18.712;99.000;2023-02-01T09:23:16;29.40;27.00
38995;DHT22;24769;18.712;99.000;2023-02-01T09:25:43;29.10;28.40
38995;DHT22;24769;18.712;99.000;2023-02-01T09:28:09;28.90;27.30
38995;DHT22;24769;18.712;99.000;2023-02-01T09:30:37;28.80;26.60
38995;DHT22;24769;18.712;99.000;2023-02-01T09:33:04;29.00;28.30
38995;DHT22;24769;18.712;99.000;2023-02-01T09:35:30;28.90;27.40
38995;DHT22;24769;18.712;99.000;2023-02-01T09:37:57;28.90;27.50
38995;DHT22;24769;18.712;99.000;2023-02-01T09:40:24;28.80;26.80
38995;DHT22;24769;18.712;99.000;2023-02-01T09:45:40;28.80;28.30
38995;DHT22;24769;18.712;99.000;2023-02-01T09:48:20;28.70;27.90
38995;DHT22;24769;18.712;99.000;2023-02-01T09:50:53;28.50;29.40
38995;DHT22;24769;18.712;99.000;2023-02-01T09:56:07;28.40;29.30
38995;DHT22;24769;18.712;99.000;2023-02-01T09:58:40;28.30;30.40
38995;DHT22;24769;18.712;99.000;2023-02-01T10:01:19;28.20;32.40
38995;DHT22;24769;18.712;99.000;2023-02-01T10:03:48;28.10;29.70
38995;DHT22;24769;18.712;99.000;2023-02-01T10:06:47;28.00;31.70
38995;DHT22;24769;18.712;99.000;2023-02-01T10:09:29;27.90;32.90
38995;DHT22;24769;18.712;99.000;2023-02-01T10:12:38;27.90;30.00
38995;DHT22;24769;18.712;99.000;2023-02-01T10:15:33;27.70;32.30
38995;DHT22;24769;18.712;99.000;2023-02-01T10:21:10;27.30;35.70
38995;DHT22;24769;18.712;99.000;2023-02-01T10:24:08;27.00;39.50
38995;DHT22;24769;18.712;99.000;2023-02-01T10:26:42;26.70;42.00
38995;DHT22;24769;18.712;99.000;2023-02-01T10:29:20;26.40;47.10
38995;DHT22;24769;18.712;99.000;2023-02-01T10:31:47;26.30;47.60
38995;DHT22;24769;18.712;99.000;2023-02-01T10:34:41;26.20;48.30
38995;DHT22;24769;18.712;99.000;2023-02-01T10:37:27;26.10;49.90
38995;DHT22;24769;18.712;99.000;2023-02-01T10:39:56;26.00;52.10
38995;DHT22;24769;18.712;99.000;2023-02-01T10:42:28;25.90;52.60
38995;DHT22;24769;18.712;99.000;2023-02-01T10:45:00;25.80;54.80
38995;DHT22;24769;18.712;99.000;2023-02-01T10:47:28;25.60;54.60
38995;DHT22;24769;18.712;99.000;2023-02-01T10:52:38;25.40;58.00
38995;DHT22;24769;18.712;99.000;2023-02-01T10:55:30;25.30;59.50
38995;DHT22;24769;18.712;99.000;2023-02-01T10:58:00;25.10;59.50
38995;DHT22;24769;18.712;99.000;2023-02-01T11:00:54;25.00;61.40
38995;DHT22;24769;18.712;99.000;2023-02-01T11:05:48;24.80;64.20
38995;DHT22;24769;18.712;99.000;2023-02-01T11:08:19;24.70;63.70
38995;DHT22;24769;18.712;99.000;2023-02-01T11:10:45;24.60;63.10
38995;DHT22;24769;18.712;99.000;2023-02-01T11:13:17;24.40;64.70
38995;DHT22;24769;18.712;99.000;2023-02-01T11:15:47;24.30;65.50
38995;DHT22;24769;18.712;99.000;2023-02-01T11:18:27;24.20;66.10
38995;DHT22;24769;18.712;99.000;2023-02-01T11:20:54;24.10;66.90
38995;DHT22;24769;18.712;99.000;2023-02-01T11:23:25;24.00;67.30
38995;DHT22;24769;18.712;99.000;2023-02-01T11:26:01;23.80;69.40
38995;DHT22;24769;18.712;99.000;2023-02-01T11:28:35;23.70;69.60
38995;DHT22;24769;18.712;99.000;2023-02-01T11:31:08;23.60;69.60
38995;DHT22;24769;18.712;99.000;2023-02-01T11:33:38;23.60;70.70
38995;DHT22;24769;18.712;99.000;2023-02-01T11:36:12;23.50;71.60
38995;DHT22;24769;18.712;99.000;2023-02-01T11:38:45;23.40;72.30
38995;DHT22;24769;18.712;99.000;2023-02-01T11:41:26;23.40;72.70
38995;DHT22;24769;18.712;99.000;2023-02-01T11:43:57;23.30;74.60
38995;DHT22;24769;18.712;99.000;2023-02-01T11:46:31;23.20;75.90
38995;DHT22;24769;18.712;99.000;2023-02-01T11:49:20;23.20;76.70
38995;DHT22;24769;18.712;99.000;2023-02-01T11:52:03;23.10;77.10
38995;DHT22;24769;18.712;99.000;2023-02-01T12:11:22;22.60;92.10
38995;DHT22;24769;18.712;99.000;2023-02-01T12:16:51;22.60;93.60
38995;DHT22;24769;18.712;99.000;2023-02-01T12:41:58;22.10;99.90
38995;DHT22;24769;18.712;99.000;2023-02-01T12:44:28;21.90;99.90
38995;DHT22;24769;18.712;99.000;2023-02-01T12:47:32;22.10;99.90
38995;DHT22;24769;18.712;99.000;2023-02-01T12:52:48;22.20;99.90
38995;DHT22;24769;18.712;99.000;2023-02-01T12:57:58;22.00;99.90
38995;DHT22;24769;18.712;99.000;2023-02-01T13:00:34;21.90;99.90
38995;DHT22;24769;18.712;99.000;2023-02-01T13:06:07;21.80;99.90
38995;DHT22;24769;18.712;99.000;2023-02-01T13:11:36;21.70;99.90
38995;DHT22;24769;18.712;99.000;2023-02-01T13:17:19;21.60;99.90
38995;DHT22;24769;18.712;99.000;2023-02-01T13:20:05;21.50;99.90
38995;DHT22;24769;18.712;99.000;2023-02-01T13:22:36;21.40;99.90
38995;DHT22;24769;18.712;99.000;2023-02-01T13:25:53;21.30;99.90
38995;DHT22;24769;18.712;99.000;2023-02-01T13:28:27;21.20;99.90
38995;DHT22;24769;18.712;99.000;2023-02-01T13:36:57;21.20;99.90
38995;DHT22;24769;18.712;99.000;2023-02-01T13:45:45;21.10;99.90
38995;DHT22;24769;18.712;99.000;2023-02-01T13:48:25;21.10;99.90
38995;DHT22;24769;18.712;99.000;2023-02-01T13:50:56;21.00;99.90
38995;DHT22;24769;18.712;99.000;2023-02-01T13:53:34;21.00;99.90
38995;DHT22;24769;18.712;99.000;2023-02-01T13:58:43;21.10;99.90
38995;DHT22;24769;18.712;99.000;2023-02-01T14:01:32;21.20;99.90
38995;DHT22;24769;18.712;99.000;2023-02-01T14:04:44;21.10;99.90
38995;DHT22;24769;18.712;99.000;2023-02-01T14:06:54;21.10;99.90
38995;DHT22;24769;18.712;99.000;2023-02-01T14:09:39;21.10;99.90
38995;DHT22;24769;18.712;99.000;2023-02-01T14:15:24;20.90;99.90
38995;DHT22;24769;18.712;99.000;2023-02-01T14:17:51;20.90;99.90
38995;DHT22;24769;18.712;99.000;2023-02-01T14:20:43;20.80;99.90
38995;DHT22;24769;18.712;99.000;2023-02-01T14:23:14;20.80;99.90
38995;DHT22;24769;18.712;99.000;2023-02-01T14:25:43;20.70;99.90
38995;DHT22;24769;18.712;99.000;2023-02-01T14:28:29;20.60;99.90
38995;DHT22;24769;18.712;99.000;2023-02-01T14:30:57;20.70;99.90
38995;DHT22;24769;18.712;99.000;2023-02-01T14:33:27;20.60;99.90
38995;DHT22;24769;18.712;99.000;2023-02-01T14:36:06;20.60;99.90
38995;DHT22;24769;18.712;99.000;2023-02-01T14:38:36;20.50;99.90
38995;DHT22;24769;18.712;99.000;2023-02-01T14:52:40;20.50;99.90
38995;DHT22;24769;18.712;99.000;2023-02-01T14:57:58;20.40;99.90
38995;DHT22;24769;18.712;99.000;2023-02-01T15:00:30;20.30;99.90
38995;DHT22;24769;18.712;99.000;2023-02-01T15:09:31;20.40;99.90
38995;DHT22;24769;18.712;99.000;2023-02-01T15:14:39;20.30;99.90
38995;DHT22;24769;18.712;99.000;2023-02-01T15:17:27;20.30;99.90
38995;DHT22;24769;18.712;99.000;2023-02-01T15:20:21;20.30;99.90
38995;DHT22;24769;18.712;99.000;2023-02-01T15:23:05;20.20;99.90
38995;DHT22;24769;18.712;99.000;2023-02-01T15:25:38;20.20;99.90
38995;DHT22;24769;18.712;99.000;2023-02-01T15:28:08;20.20;99.90
38995;DHT22;24769;18.712;99.000;2023-02-01T15:30:36;20.10;99.90
38995;DHT22;24769;18.712;99.000;2023-02-01T15:35:49;20.10;99.90
38995;DHT22;24769;18.712;99.000;2023-02-01T15:38:35;20.00;99.90
38995;DHT22;24769;18.712;99.000;2023-02-01T15:41:18;20.00;99.90
38995;DHT22;24769;18.712;99.000;2023-02-01T15:46:18;19.90;99.90
38995;DHT22;24769;18.712;99.000;2023-02-01T15:48:50;20.00;99.90
38995;DHT22;24769;18.712;99.000;2023-02-01T15:51:20;19.90;99.90
38995;DHT22;24769;18.712;99.000;2023-02-01T15:53:58;19.90;99.90
38995;DHT22;24769;18.712;99.000;2023-02-01T15:56:36;19.90;99.90
38995;DHT22;24769;18.712;99.000;2023-02-01T15:59:12;19.90;99.90
38995;DHT22;24769;18.712;99.000;2023-02-01T16:01:39;19.90;99.90
38995;DHT22;24769;18.712;99.000;2023-02-01T16:04:26;19.70;99.90
38995;DHT22;24769;18.712;99.000;2023-02-01T16:07:03;19.70;99.90
38995;DHT22;24769;18.712;99.000;2023-02-01T16:09:48;19.70;99.90
38995;DHT22;24769;18.712;99.000;2023-02-01T16:12:34;19.70;99.90
38995;DHT22;24769;18.712;99.000;2023-02-01T16:15:11;19.70;99.90
38995;DHT22;24769;18.712;99.000;2023-02-01T16:17:37;19.60;99.90
38995;DHT22;24769;18.712;99.000;2023-02-01T16:20:05;19.60;99.90
38995;DHT22;24769;18.712;99.000;2023-02-01T16:22:31;19.60;99.90
38995;DHT22;24769;18.712;99.000;2023-02-01T16:24:58;19.50;99.90
38995;DHT22;24769;18.712;99.000;2023-02-01T16:27:24;19.60;99.90
38995;DHT22;24769;18.712;99.000;2023-02-01T16:29:51;19.60;99.90
38995;DHT22;24769;18.712;99.000;2023-02-01T16:32:22;19.60;99.90
38995;DHT22;24769;18.712;99.000;2023-02-01T16:34:48;19.50;99.90
38995;DHT22;24769;18.712;99.000;2023-02-01T16:37:25;19.50;99.90
38995;DHT22;24769;18.712;99.000;2023-02-01T16:39:53;19.50;99.90
38995;DHT22;24769;18.712;99.000;2023-02-01T16:42:20;19.40;99.90
38995;DHT22;24769;18.712;99.000;2023-02-01T16:44:46;19.30;99.90
38995;DHT22;24769;18.712;99.000;2023-02-01T16:47:21;19.30;99.90
38995;DHT22;24769;18.712;99.000;2023-02-01T16:49:48;19.30;99.90
38995;DHT22;24769;18.712;99.000;2023-02-01T16:52:18;19.40;99.90
38995;DHT22;24769;18.712;99.000;2023-02-01T16:54:46;19.50;99.90
38995;DHT22;24769;18.712;99.000;2023-02-01T16:57:17;19.30;99.90
38995;DHT22;24769;18.712;99.000;2023-02-01T16:59:43;19.40;99.90
38995;DHT22;24769;18.712;99.000;2023-02-01T17:02:13;19.50;99.90
38995;DHT22;24769;18.712;99.000;2023-02-01T17:04:40;19.40;99.90
38995;DHT22;24769;18.712;99.000;2023-02-01T17:07:11;19.30;99.90
38995;DHT22;24769;18.712;99.000;2023-02-01T17:09:39;19.30;99.90
38995;DHT22;24769;18.712;99.000;2023-02-01T17:12:06;19.30;99.90
38995;DHT22;24769;18.712;99.000;2023-02-01T17:14:38;19.30;99.90
38995;DHT22;24769;18.712;99.000;2023-02-01T17:17:06;19.30;99.90
38995;DHT22;24769;18.712;99.000;2023-02-01T17:19:34;19.30;99.90
38995;DHT22;24769;18.712;99.000;2023-02-01T17:22:01;19.20;99.90
38995;DHT22;24769;18.712;99.000;2023-02-01T17:24:29;19.20;99.90
38995;DHT22;24769;18.712;99.000;2023-02-01T17:26:57;19.10;99.90
38995;DHT22;24769;18.712;99.000;2023-02-01T17:29:23;19.10;99.90
38995;DHT22;24769;18.712;99.000;2023-02-01T17:31:54;19.10;99.90
38995;DHT22;24769;18.712;99.000;2023-02-01T17:34:21;19.00;99.90
38995;DHT22;24769;18.712;99.000;2023-02-01T17:36:48;19.00;99.90
38995;DHT22;24769;18.712;99.000;2023-02-01T17:39:15;18.90;99.90
38995;DHT22;24769;18.712;99.000;2023-02-01T17:42:01;19.00;99.90
38995;DHT22;24769;18.712;99.000;2023-02-01T17:44:27;18.80;99.90
38995;DHT22;24769;18.712;99.000;2023-02-01T17:46:54;18.90;99.90
38995;DHT22;24769;18.712;99.000;2023-02-01T17:49:22;19.00;99.90
38995;DHT22;24769;18.712;99.000;2023-02-01T17:51:49;18.90;99.90
38995;DHT22;24769;18.712;99.000;2023-02-01T17:54:16;19.00;99.90
38995;DHT22;24769;18.712;99.000;2023-02-01T17:56:45;18.90;99.90
38995;DHT22;24769;18.712;99.000;2023-02-01T17:59:15;18.80;99.90
38995;DHT22;24769;18.712;99.000;2023-02-01T18:01:42;18.80;99.90
38995;DHT22;24769;18.712;99.000;2023-02-01T18:04:18;18.80;99.90
38995;DHT22;24769;18.712;99.000;2023-02-01T18:06:46;18.80;99.90
38995;DHT22;24769;18.712;99.000;2023-02-01T18:09:13;18.80;99.90
38995;DHT22;24769;18.712;99.000;2023-02-01T18:11:39;18.80;99.90
38995;DHT22;24769;18.712;99.000;2023-02-01T18:14:11;18.80;99.90
38995;DHT22;24769;18.712;99.000;2023-02-01T18:16:40;18.90;99.90
38995;DHT22;24769;18.712;99.000;2023-02-01T18:19:07;18.80;99.90
38995;DHT22;24769;18.712;99.000;2023-02-01T18:21:42;18.80;99.90
38995;DHT22;24769;18.712;99.000;2023-02-01T18:24:13;18.70;99.90
38995;DHT22;24769;18.712;99.000;2023-02-01T18:26:40;18.50;99.90